Terminal Aerodrome Forecast
Issued by NWS

Home | Current Version | Previous Version | Text Only | Print | Product List | Glossary On
Versions: 1 2 3 4 5 6 7 8 9 10 11 12 13 14
000
FTUS45 KABQ 310527
TAFSAF
TAF
KSAF 310527Z 3106/0106 VRB04KT P6SM BKN120
      TEMPO 3106/3108 12015KT
     FM311200 36006KT P6SM SCT120
     FM311900 25008KT P6SM FEW090
     FM312230 25010G16KT P6SM VCTS SCT090CB BKN150
     FM010100 12008KT P6SM VCSH SCT080 BKN120=

USA.gov is the U.S. government's official web portal to all federal, state and local government web resources and services.